Larisa, Greece
Current Conditions -  °F | °C
As of 3:50 PM on Tuesday 21 Oct 2014 (Local Time) from LGLR Reporting Station
Clear Clear  
Wind Chill: 75°   Ceiling: Unl
Heat Index: 75°   Visibility: 6mi
Dew Point: 46°   Wind: 0mph
Humidity: 36%   Direction: NA
Pressure: 29.85"   Gusts: NA
Location:  39.64°N, 22.42°E
Report Text: LGLR 211250Z 00000KT CAVOK 24/08 Q1011 BLU
Loading
Personal Weather Stations






























Interactive Weather Map
Tropical Storm Tracking
New forecast layout! Learn more

10-Day Weather Forecast

Advertisements
Track Severe Weather on mobile